createdAt,value
2019-02-26T00:00:37.147Z,19.63
2019-02-26T00:03:05.622Z,19.87
2019-02-26T00:05:34.032Z,24.23
2019-02-26T00:08:02.753Z,20.63
2019-02-26T00:10:32.318Z,21.40
2019-02-26T00:13:01.615Z,18.70
2019-02-26T00:15:33.399Z,20.87
2019-02-26T00:18:00.371Z,20.97
2019-02-26T00:20:31.289Z,23.67
2019-02-26T00:22:59.781Z,22.03
2019-02-26T00:25:29.299Z,23.37
2019-02-26T00:27:58.676Z,22.87
2019-02-26T00:30:27.143Z,24.67
2019-02-26T00:32:57.715Z,21.47
2019-02-26T00:35:27.464Z,25.97
2019-02-26T00:37:55.932Z,23.67
2019-02-26T00:40:24.373Z,24.33
2019-02-26T00:42:55.022Z,24.77
2019-02-26T00:45:27.011Z,24.30
2019-02-26T00:47:53.040Z,25.57
2019-02-26T00:50:21.395Z,26.17
2019-02-26T00:52:52.139Z,26.37
2019-02-26T00:55:23.178Z,32.80
2019-02-26T00:57:50.784Z,27.53
2019-02-26T01:00:19.774Z,28.07
2019-02-26T01:02:48.295Z,29.80
2019-02-26T01:05:16.851Z,31.23
2019-02-26T01:07:47.369Z,28.57
2019-02-26T01:10:16.381Z,26.10
2019-02-26T01:12:45.937Z,30.27
2019-02-26T01:15:14.392Z,29.57
2019-02-26T01:17:42.830Z,27.47
2019-02-26T01:20:31.995Z,24.93
2019-02-26T01:23:00.548Z,25.20
2019-02-26T01:25:29.009Z,25.87
2019-02-26T01:27:58.516Z,25.33
2019-02-26T01:30:29.414Z,24.27
2019-02-26T01:33:00.012Z,27.73
2019-02-26T01:35:28.986Z,28.50
2019-02-26T01:38:00.457Z,27.03
2019-02-26T01:40:28.549Z,26.77
2019-02-26T01:42:57.944Z,28.80
2019-02-26T01:45:29.839Z,24.83
2019-02-26T01:47:57.447Z,25.93
2019-02-26T01:50:25.819Z,29.40
2019-02-26T01:52:56.242Z,34.03
2019-02-26T01:55:25.398Z,27.13
2019-02-26T01:57:58.511Z,26.27
2019-02-26T02:00:25.948Z,27.13
2019-02-26T02:02:54.411Z,27.33
2019-02-26T02:05:23.779Z,28.00
2019-02-26T02:07:53.629Z,29.87
2019-02-26T02:10:23.536Z,26.40
2019-02-26T02:12:55.243Z,28.57
2019-02-26T02:15:23.685Z,28.90
2019-02-26T02:17:52.551Z,26.90
2019-02-26T02:20:21.611Z,29.20
2019-02-26T02:22:50.239Z,30.13
2019-02-26T02:25:18.714Z,24.73
2019-02-26T02:27:49.678Z,28.43
2019-02-26T02:30:22.719Z,26.20
2019-02-26T02:32:51.249Z,26.73
2019-02-26T02:35:19.197Z,25.23
2019-02-26T02:37:48.169Z,26.03
2019-02-26T02:40:16.646Z,26.07
2019-02-26T02:42:48.483Z,30.10
2019-02-26T02:45:19.658Z,25.90
2019-02-26T02:47:45.478Z,24.80
2019-02-26T02:50:15.208Z,29.03
2019-02-26T02:52:44.156Z,27.43
2019-02-26T02:55:15.583Z,23.50
2019-02-26T02:57:42.835Z,23.67
2019-02-26T03:00:11.609Z,26.03
2019-02-26T03:02:42.875Z,28.77
2019-02-26T03:05:32.057Z,27.87
2019-02-26T03:07:59.739Z,26.27
2019-02-26T03:10:30.812Z,29.57
2019-02-26T03:13:00.358Z,26.27
2019-02-26T03:15:30.038Z,26.27
2019-02-26T03:17:58.700Z,20.97
2019-02-26T03:20:28.750Z,21.73
2019-02-26T03:23:09.343Z,20.83
2019-02-26T03:25:37.264Z,23.83
2019-02-26T03:28:05.744Z,22.33
2019-02-26T03:30:40.156Z,20.87
2019-02-26T03:33:04.911Z,22.80
2019-02-26T03:35:33.556Z,20.63
2019-02-26T03:38:03.587Z,24.57
2019-02-26T03:40:32.963Z,21.30
2019-02-26T03:43:04.550Z,20.37
2019-02-26T03:45:32.650Z,19.50
2019-02-26T03:48:01.128Z,19.13
2019-02-26T03:50:29.641Z,20.50
2019-02-26T03:52:58.023Z,22.60
2019-02-26T03:55:26.562Z,24.57
2019-02-26T03:57:58.544Z,23.07
2019-02-26T04:00:25.185Z,23.17
2019-02-26T04:02:53.648Z,23.33
2019-02-26T04:05:22.227Z,23.83
2019-02-26T04:07:53.292Z,24.60
2019-02-26T04:10:21.039Z,20.60
2019-02-26T04:12:52.306Z,22.77
2019-02-26T04:15:19.824Z,25.70
2019-02-26T04:17:48.355Z,28.23
2019-02-26T04:20:17.071Z,24.67
2019-02-26T04:22:47.050Z,24.50
2019-02-26T04:25:17.390Z,26.93
2019-02-26T04:27:56.373Z,28.20
2019-02-26T04:30:36.566Z,24.23
2019-02-26T04:33:19.016Z,26.53
2019-02-26T04:35:55.500Z,27.40
2019-02-26T04:38:37.204Z,28.23
2019-02-26T04:41:24.294Z,27.07
2019-02-26T04:44:11.965Z,28.03
2019-02-26T04:46:43.132Z,24.13
2019-02-26T04:49:11.663Z,21.67
2019-02-26T04:51:45.048Z,25.83
2019-02-26T04:54:17.609Z,24.50
2019-02-26T04:56:45.099Z,22.83
2019-02-26T04:59:16.491Z,25.23
2019-02-26T05:01:47.234Z,32.90
2019-02-26T05:04:15.904Z,26.03
2019-02-26T05:06:44.409Z,28.03
2019-02-26T05:09:12.926Z,29.87
2019-02-26T05:11:41.351Z,27.17
2019-02-26T05:14:11.744Z,26.90
2019-02-26T05:16:40.928Z,31.07
2019-02-26T05:19:10.605Z,25.50
2019-02-26T05:21:39.703Z,26.67
2019-02-26T05:24:08.263Z,26.13
2019-02-26T05:26:36.793Z,26.23
2019-02-26T05:29:06.749Z,24.30
2019-02-26T05:31:37.682Z,27.37
2019-02-26T05:34:05.507Z,27.37
2019-02-26T05:36:36.751Z,30.77
2019-02-26T05:39:05.658Z,27.33
2019-02-26T05:41:34.204Z,27.40
2019-02-26T05:44:04.766Z,26.67
2019-02-26T05:46:33.045Z,28.03
2019-02-26T05:49:03.544Z,28.10
2019-02-26T05:51:32.766Z,24.80
2019-02-26T05:54:07.602Z,28.33
2019-02-26T05:56:34.053Z,26.47
2019-02-26T05:59:06.813Z,26.87
2019-02-26T06:01:33.363Z,29.20
2019-02-26T06:04:04.865Z,27.70
2019-02-26T06:06:32.226Z,24.97
2019-02-26T06:09:02.897Z,24.97
2019-02-26T06:11:34.001Z,25.70
2019-02-26T06:14:06.691Z,25.60
2019-02-26T06:16:56.809Z,29.07
2019-02-26T06:19:40.213Z,26.07
2019-02-26T06:22:11.597Z,31.03
2019-02-26T06:24:40.045Z,26.30
2019-02-26T06:27:13.114Z,29.50
2019-02-26T06:29:39.003Z,34.77
2019-02-26T06:32:09.617Z,32.73
2019-02-26T06:34:38.699Z,28.77
2019-02-26T06:37:16.484Z,34.27
2019-02-26T06:39:44.513Z,32.50
2019-02-26T06:42:14.514Z,30.83
2019-02-26T06:44:43.744Z,40.10
2019-02-26T06:47:13.289Z,32.57
2019-02-26T06:49:43.286Z,36.13
2019-02-26T06:52:13.098Z,32.47
2019-02-26T06:54:42.097Z,26.60
2019-02-26T06:57:10.586Z,31.30
2019-02-26T06:59:39.057Z,31.77
2019-02-26T07:02:08.845Z,31.93
2019-02-26T07:04:37.730Z,27.67
2019-02-26T07:07:07.414Z,32.53
2019-02-26T07:09:36.938Z,31.43
2019-02-26T07:12:06.425Z,30.33
2019-02-26T07:14:34.889Z,27.63
2019-02-26T07:17:03.354Z,25.97
2019-02-26T07:19:33.233Z,34.10
2019-02-26T07:22:02.052Z,32.97
2019-02-26T07:24:30.565Z,30.03
2019-02-26T07:26:59.014Z,26.30
2019-02-26T07:29:30.757Z,26.80
2019-02-26T07:31:58.879Z,27.37
2019-02-26T07:34:27.574Z,26.00
2019-02-26T07:36:56.152Z,28.20
2019-02-26T07:39:24.609Z,28.90
2019-02-26T07:41:54.431Z,35.30
2019-02-26T07:44:24.109Z,29.73
2019-02-26T07:46:53.107Z,26.87
2019-02-26T07:49:21.914Z,25.23
2019-02-26T07:51:50.409Z,29.47
2019-02-26T07:54:18.911Z,30.00
2019-02-26T07:56:47.285Z,30.80
2019-02-26T07:59:17.136Z,32.07
2019-02-26T08:01:47.200Z,29.23
2019-02-26T08:04:16.549Z,24.33
2019-02-26T08:06:45.967Z,23.17
2019-02-26T08:09:16.501Z,30.33
2019-02-26T08:11:48.511Z,26.03
2019-02-26T08:14:16.185Z,24.23
2019-02-26T08:16:49.215Z,23.37
2019-02-26T08:19:15.189Z,21.93
2019-02-26T08:21:45.450Z,25.87
2019-02-26T08:24:14.855Z,23.07
2019-02-26T08:26:45.218Z,21.40
2019-02-26T08:29:14.137Z,20.10
2019-02-26T08:31:44.783Z,22.03
2019-02-26T08:34:15.587Z,21.57
2019-02-26T08:36:46.213Z,22.03
2019-02-26T08:39:15.631Z,18.87
2019-02-26T08:42:00.353Z,19.53
2019-02-26T08:44:28.820Z,18.50
2019-02-26T08:46:57.294Z,18.47
2019-02-26T08:49:25.691Z,16.63
2019-02-26T08:51:54.156Z,18.40
2019-02-26T08:54:24.306Z,20.20
2019-02-26T08:56:52.652Z,18.60
2019-02-26T08:59:21.151Z,20.60
2019-02-26T09:01:49.605Z,19.30
2019-02-26T09:04:19.694Z,25.50
2019-02-26T09:06:50.559Z,21.43
2019-02-26T09:09:20.512Z,21.90
2019-02-26T09:11:50.379Z,20.80
2019-02-26T09:14:19.206Z,22.93
2019-02-26T09:16:50.140Z,19.57
2019-02-26T09:19:18.078Z,25.53
2019-02-26T09:21:47.798Z,23.03
2019-02-26T09:24:16.851Z,24.60
2019-02-26T09:26:45.398Z,23.77
2019-02-26T09:29:15.533Z,18.47
2019-02-26T09:31:44.095Z,19.27
2019-02-26T09:34:12.607Z,20.97
2019-02-26T09:36:41.097Z,22.13
2019-02-26T09:39:10.669Z,19.23
2019-02-26T09:41:40.314Z,23.40
2019-02-26T09:44:11.687Z,21.60
2019-02-26T09:46:41.945Z,21.67
2019-02-26T09:49:12.594Z,21.43
2019-02-26T09:51:40.724Z,19.63
2019-02-26T09:54:10.934Z,19.53
2019-02-26T09:56:39.542Z,22.23
2019-02-26T09:59:09.807Z,19.43
2019-02-26T10:01:40.201Z,19.63
2019-02-26T10:04:08.484Z,18.50
2019-02-26T10:06:37.941Z,21.07
2019-02-26T10:09:08.961Z,17.77
2019-02-26T10:11:39.340Z,25.33
2019-02-26T10:14:08.317Z,17.73
2019-02-26T10:16:37.783Z,19.07
2019-02-26T10:19:07.855Z,20.33
2019-02-26T10:21:37.543Z,18.57
2019-02-26T10:24:06.582Z,18.03
2019-02-26T10:26:36.609Z,15.30
2019-02-26T10:29:07.145Z,16.13
2019-02-26T10:31:35.456Z,13.20
2019-02-26T10:34:07.927Z,15.67
2019-02-26T10:36:36.384Z,14.17
2019-02-26T10:39:07.351Z,12.73
2019-02-26T10:41:36.852Z,16.73
2019-02-26T10:44:05.961Z,15.07
2019-02-26T10:46:35.017Z,21.33
2019-02-26T10:49:04.646Z,15.23
2019-02-26T10:51:33.158Z,13.77
2019-02-26T10:54:02.801Z,14.33
2019-02-26T10:56:36.801Z,12.57
2019-02-26T10:59:05.857Z,13.60
2019-02-26T11:01:33.662Z,13.20
2019-02-26T11:04:04.474Z,17.70
2019-02-26T11:06:33.740Z,20.33
2019-02-26T11:09:02.973Z,15.27
2019-02-26T11:11:32.900Z,16.37
2019-02-26T11:14:01.652Z,16.87
2019-02-26T11:16:31.002Z,18.20
2019-02-26T11:19:02.375Z,19.57
2019-02-26T11:21:30.636Z,23.40
2019-02-26T11:24:00.832Z,22.00
2019-02-26T11:26:30.175Z,21.33
2019-02-26T11:28:59.561Z,21.47
2019-02-26T11:31:28.029Z,18.27
2019-02-26T11:33:59.518Z,21.23
2019-02-26T11:36:28.097Z,18.23
2019-02-26T11:38:59.017Z,19.83
2019-02-26T11:41:28.743Z,18.67
2019-02-26T11:43:57.215Z,24.20
2019-02-26T11:46:27.304Z,22.00
2019-02-26T11:48:57.457Z,19.20
2019-02-26T11:51:26.105Z,22.47
2019-02-26T11:53:54.484Z,20.57
2019-02-26T11:56:25.675Z,22.63
2019-02-26T11:58:53.513Z,21.03
2019-02-26T12:01:22.058Z,21.17
2019-02-26T12:03:50.558Z,22.37
2019-02-26T12:06:19.110Z,20.23
2019-02-26T12:08:49.925Z,22.27
2019-02-26T12:11:20.445Z,17.50
2019-02-26T12:13:50.071Z,16.60
2019-02-26T12:16:18.197Z,21.60
2019-02-26T12:18:47.054Z,20.30
2019-02-26T12:21:15.665Z,14.27
2019-02-26T12:23:46.646Z,16.40
2019-02-26T12:26:16.326Z,17.70
2019-02-26T12:28:44.563Z,16.63
2019-02-26T12:31:13.050Z,13.63
2019-02-26T12:33:41.561Z,17.33
2019-02-26T12:36:10.409Z,16.93
2019-02-26T12:38:38.984Z,15.93
2019-02-26T12:41:08.863Z,16.87
2019-02-26T12:43:42.670Z,18.87
2019-02-26T12:46:08.616Z,14.63
2019-02-26T12:48:40.484Z,21.10
2019-02-26T12:51:08.002Z,15.07
2019-02-26T12:53:47.599Z,13.10
2019-02-26T12:56:15.862Z,12.93
2019-02-26T12:58:45.228Z,15.03
2019-02-26T13:01:14.542Z,15.67
2019-02-26T13:03:46.232Z,12.13
2019-02-26T13:06:17.952Z,13.23
2019-02-26T13:08:47.047Z,14.73
2019-02-26T13:11:14.057Z,13.60
2019-02-26T13:13:45.221Z,13.07
2019-02-26T13:16:13.793Z,26.60
2019-02-26T13:18:42.258Z,12.40
2019-02-26T13:21:13.351Z,13.33
2019-02-26T13:23:40.836Z,10.70
2019-02-26T13:26:10.869Z,12.80
2019-02-26T13:28:41.915Z,8.87
2019-02-26T13:31:13.767Z,10.10
2019-02-26T13:33:42.141Z,8.77
2019-02-26T13:36:10.811Z,9.20
2019-02-26T13:38:44.640Z,11.20
2019-02-26T13:41:28.817Z,13.43
2019-02-26T13:43:39.702Z,11.30
2019-02-26T13:46:08.201Z,9.57
2019-02-26T13:48:37.024Z,9.07
2019-02-26T13:51:06.099Z,9.33
2019-02-26T13:53:34.614Z,12.17
2019-02-26T13:56:03.098Z,11.10
2019-02-26T13:58:32.321Z,9.53
2019-02-26T14:01:02.098Z,12.87
2019-02-26T14:03:30.873Z,12.17
2019-02-26T14:05:59.725Z,11.33
2019-02-26T14:08:28.502Z,12.13
2019-02-26T14:10:56.970Z,12.33
2019-02-26T14:13:25.428Z,13.93
2019-02-26T14:15:53.940Z,13.07
2019-02-26T14:18:22.439Z,13.23
2019-02-26T14:20:51.153Z,12.73
2019-02-26T14:23:19.898Z,15.03
2019-02-26T14:25:48.663Z,13.03
2019-02-26T14:28:17.382Z,13.83
2019-02-26T14:30:45.874Z,13.83
2019-02-26T14:33:14.363Z,14.63
2019-02-26T14:35:42.850Z,17.03
2019-02-26T14:38:12.306Z,12.93
2019-02-26T14:40:40.802Z,14.50
2019-02-26T14:43:09.366Z,15.93
2019-02-26T14:45:37.856Z,16.50
2019-02-26T14:48:06.273Z,16.37
2019-02-26T14:50:34.779Z,14.10
2019-02-26T14:53:03.297Z,15.37
2019-02-26T14:55:31.776Z,17.33
2019-02-26T14:58:00.264Z,14.87
2019-02-26T15:00:28.924Z,14.63
2019-02-26T15:02:57.432Z,14.90
2019-02-26T15:05:25.967Z,13.87
2019-02-26T15:07:54.484Z,14.17
2019-02-26T15:10:22.965Z,17.77
2019-02-26T15:12:51.432Z,16.03
2019-02-26T15:15:20.014Z,16.17
2019-02-26T15:17:48.569Z,16.97
2019-02-26T15:20:17.086Z,15.20
2019-02-26T15:22:45.557Z,15.10
2019-02-26T15:25:16.272Z,16.37
2019-02-26T15:27:44.739Z,14.27
2019-02-26T15:30:13.641Z,14.47
2019-02-26T15:32:42.150Z,12.83
2019-02-26T15:35:10.686Z,14.57
2019-02-26T15:37:39.652Z,15.03
2019-02-26T15:40:08.660Z,13.87
2019-02-26T15:42:37.193Z,14.50
2019-02-26T15:45:06.903Z,16.20
2019-02-26T15:47:35.408Z,14.03
2019-02-26T15:50:06.717Z,14.13
2019-02-26T15:52:34.930Z,17.63
2019-02-26T16:14:34.519Z,21.20
2019-02-26T16:17:03.102Z,20.10
2019-02-26T16:19:31.636Z,18.73
2019-02-26T16:22:00.223Z,20.20
2019-02-26T16:24:28.915Z,19.13
2019-02-26T16:26:57.424Z,19.53
2019-02-26T16:29:26.165Z,18.47
2019-02-26T16:31:54.768Z,17.10
2019-02-26T16:34:23.410Z,16.17
2019-02-26T16:36:52.097Z,18.73
2019-02-26T16:39:22.615Z,17.80
2019-02-26T16:41:50.803Z,16.60
2019-02-26T16:44:19.386Z,18.03
2019-02-26T16:46:47.905Z,16.97
2019-02-26T16:49:16.402Z,17.93
2019-02-26T16:51:44.952Z,17.63
2019-02-26T16:54:13.445Z,18.50
2019-02-26T16:56:41.925Z,15.13
2019-02-26T16:59:12.436Z,16.30
2019-02-26T17:01:41.485Z,19.77
2019-02-26T17:04:10.104Z,17.67
2019-02-26T17:06:38.696Z,20.33
2019-02-26T17:09:07.536Z,18.90
2019-02-26T17:11:36.012Z,19.87
2019-02-26T17:14:04.538Z,18.80
2019-02-26T17:16:33.012Z,15.37
2019-02-26T17:19:01.479Z,18.63
2019-02-26T17:21:30.764Z,19.87
2019-02-26T17:23:59.776Z,23.07
2019-02-26T17:26:28.196Z,21.20
2019-02-26T17:28:56.744Z,18.67
2019-02-26T17:31:25.197Z,17.27
2019-02-26T17:33:53.658Z,19.13
2019-02-26T17:36:22.101Z,16.80
2019-02-26T17:38:52.260Z,16.47
2019-02-26T17:41:20.760Z,18.83
2019-02-26T17:43:49.229Z,17.17
2019-02-26T17:46:17.680Z,17.27
2019-02-26T17:48:46.146Z,16.50
2019-02-26T17:51:18.772Z,18.57
2019-02-26T17:53:44.899Z,17.17
2019-02-26T17:56:13.392Z,18.70
2019-02-26T17:58:43.857Z,17.47
2019-02-26T18:01:11.989Z,18.97
2019-02-26T18:03:44.728Z,19.90
2019-02-26T18:06:10.762Z,16.87
2019-02-26T18:08:39.320Z,19.93
2019-02-26T18:11:07.714Z,20.13
2019-02-26T18:13:36.108Z,17.40
2019-02-26T18:16:09.134Z,21.90
2019-02-26T18:18:34.937Z,20.03
2019-02-26T18:21:05.778Z,16.93
2019-02-26T18:23:37.554Z,19.33
2019-02-26T18:26:03.635Z,17.70
2019-02-26T18:28:32.114Z,16.27
2019-02-26T18:31:00.774Z,18.63
2019-02-26T18:33:29.344Z,20.97
2019-02-26T18:35:59.285Z,18.67
2019-02-26T18:38:27.927Z,22.43
2019-02-26T18:41:00.524Z,19.50
2019-02-26T18:43:27.660Z,18.00
2019-02-26T18:45:56.152Z,20.68
2019-02-26T18:48:24.543Z,17.30
2019-02-26T18:50:55.152Z,19.70
2019-02-26T18:53:23.677Z,17.07
2019-02-26T18:55:52.133Z,17.00
2019-02-26T18:58:20.587Z,19.47
2019-02-26T19:00:52.631Z,19.17
2019-02-26T19:03:22.225Z,18.07
2019-02-26T19:05:53.956Z,20.50
2019-02-26T19:08:23.737Z,23.20
2019-02-26T19:10:53.323Z,24.40
2019-02-26T19:13:22.401Z,20.03
2019-02-26T19:15:50.983Z,18.23
2019-02-26T19:18:19.544Z,24.33
2019-02-26T19:20:49.107Z,18.13
2019-02-26T19:23:18.213Z,21.63
2019-02-26T19:25:46.780Z,18.37
2019-02-26T19:28:15.246Z,22.90
2019-02-26T19:30:43.775Z,18.53
2019-02-26T19:33:12.193Z,21.17
2019-02-26T19:35:40.703Z,17.57
2019-02-26T19:38:09.180Z,18.77
2019-02-26T19:40:38.983Z,19.40
2019-02-26T19:43:13.522Z,19.73
2019-02-26T19:45:44.773Z,18.27
2019-02-26T19:48:13.418Z,20.17
2019-02-26T19:50:45.625Z,22.13
2019-02-26T19:53:12.107Z,23.73
2019-02-26T19:55:40.585Z,20.77
2019-02-26T19:58:09.072Z,21.40
2019-02-26T20:00:37.606Z,24.20
2019-02-26T20:03:06.307Z,29.07
2019-02-26T20:05:34.958Z,24.40
2019-02-26T20:08:10.576Z,24.73
2019-02-26T20:10:40.284Z,20.30
2019-02-26T20:13:12.502Z,21.53
2019-02-26T20:15:39.025Z,19.47
2019-02-26T20:18:20.230Z,21.90
2019-02-26T20:20:41.055Z,22.67
2019-02-26T20:23:09.725Z,24.10
2019-02-26T20:25:42.495Z,22.03
2019-02-26T20:28:09.718Z,23.27
2019-02-26T20:30:38.318Z,20.27
2019-02-26T20:33:06.828Z,21.97
2019-02-26T20:35:35.516Z,21.33
2019-02-26T20:38:04.097Z,22.43
2019-02-26T20:40:32.600Z,23.27
2019-02-26T20:43:01.838Z,22.37
2019-02-26T20:45:31.303Z,22.87
2019-02-26T20:48:03.831Z,26.03
2019-02-26T20:50:30.052Z,26.20
2019-02-26T20:52:58.606Z,22.13
2019-02-26T20:55:27.515Z,26.03
2019-02-26T20:57:56.106Z,29.83
2019-02-26T21:00:25.855Z,25.83
2019-02-26T21:02:54.600Z,25.50
2019-02-26T21:05:24.969Z,23.50
2019-02-26T21:07:57.872Z,24.83
2019-02-26T21:10:23.479Z,21.90
2019-02-26T21:12:52.004Z,21.43
2019-02-26T21:15:20.484Z,25.13
2019-02-26T21:17:48.961Z,24.17
2019-02-26T21:20:17.448Z,26.00
2019-02-26T21:22:45.937Z,22.77
2019-02-26T21:25:14.556Z,23.67
2019-02-26T21:27:43.031Z,23.60
2019-02-26T21:30:12.618Z,26.33
2019-02-26T21:32:41.108Z,25.63
2019-02-26T21:35:09.621Z,24.70
2019-02-26T21:37:38.110Z,24.33
2019-02-26T21:40:07.213Z,26.13
2019-02-26T21:42:35.765Z,26.00
2019-02-26T21:45:04.420Z,26.33
2019-02-26T21:47:32.909Z,24.13
2019-02-26T21:50:01.302Z,28.10
2019-02-26T21:52:29.740Z,23.83
2019-02-26T21:55:01.232Z,29.83
2019-02-26T21:57:28.323Z,33.00
2019-02-26T22:00:16.307Z,29.13
2019-02-26T22:02:44.773Z,31.10
2019-02-26T22:05:13.288Z,29.57
2019-02-26T22:07:41.740Z,31.37
2019-02-26T22:10:10.956Z,36.00
2019-02-26T22:12:39.420Z,34.60
2019-02-26T22:15:10.181Z,35.03
2019-02-26T22:17:38.145Z,32.47
2019-02-26T22:20:09.239Z,31.37
2019-02-26T22:22:37.865Z,31.50
2019-02-26T22:25:09.669Z,32.87
2019-02-26T22:27:36.708Z,31.57
2019-02-26T22:30:05.395Z,34.37
2019-02-26T22:32:34.997Z,34.10
2019-02-26T22:35:04.119Z,31.23
2019-02-26T22:37:32.649Z,29.47
2019-02-26T22:40:01.170Z,29.47
2019-02-26T22:42:29.651Z,27.43
2019-02-26T22:44:58.243Z,34.17
2019-02-26T22:47:26.657Z,30.87
2019-02-26T22:49:55.121Z,32.30
2019-02-26T22:52:24.753Z,32.17
2019-02-26T22:54:53.249Z,30.50
2019-02-26T22:57:23.829Z,33.70
2019-02-26T22:59:52.288Z,29.27
2019-02-26T23:02:21.319Z,28.63
2019-02-26T23:04:52.518Z,27.30
2019-02-26T23:07:20.132Z,33.17
2019-02-26T23:09:52.197Z,34.97
2019-02-26T23:12:18.898Z,30.83
2019-02-26T23:14:47.384Z,32.67
2019-02-26T23:17:16.117Z,34.50
2019-02-26T23:19:44.684Z,29.20
2019-02-26T23:22:13.162Z,33.57
2019-02-26T23:24:41.807Z,30.87
2019-02-26T23:27:12.863Z,27.80
2019-02-26T23:29:41.201Z,35.67
2019-02-26T23:32:09.664Z,37.40
2019-02-26T23:34:38.124Z,37.37
2019-02-26T23:37:10.002Z,41.90
2019-02-26T23:39:38.493Z,40.20
2019-02-26T23:42:07.040Z,35.97
2019-02-26T23:44:35.554Z,38.93
2019-02-26T23:47:04.398Z,35.20
2019-02-26T23:49:32.878Z,37.70
2019-02-26T23:52:01.404Z,35.70
2019-02-26T23:54:29.967Z,33.63
2019-02-26T23:56:58.459Z,33.00
2019-02-26T23:59:26.969Z,33.93
